createdAt,value
2017-05-14T00:00:59.197Z,11
2017-05-14T00:11:02.664Z,13
2017-05-14T00:20:57.415Z,15
2017-05-14T00:31:23.149Z,14
2017-05-14T00:40:44.791Z,15
2017-05-14T00:50:44.872Z,15
2017-05-14T01:00:44.785Z,18
2017-05-14T01:10:44.778Z,15
2017-05-14T01:21:07.247Z,15
2017-05-14T01:31:13.686Z,16
2017-05-14T01:41:10.293Z,18
2017-05-14T02:11:02.797Z,18
2017-05-14T02:20:45.911Z,18
2017-05-14T02:30:45.853Z,20
2017-05-14T02:40:57.782Z,20
2017-05-14T02:50:49.893Z,21
2017-05-14T03:00:44.794Z,22
2017-05-14T03:10:48.857Z,19
2017-05-14T03:20:44.789Z,21
2017-05-14T03:30:44.785Z,21
2017-05-14T03:40:44.816Z,18
2017-05-14T03:50:44.782Z,21
2017-05-14T04:00:45.785Z,20
2017-05-14T04:10:44.806Z,20
2017-05-14T04:20:44.817Z,20
2017-05-14T04:30:44.771Z,19
2017-05-14T04:40:44.801Z,23
2017-05-14T04:50:45.785Z,20
2017-05-14T05:01:10.560Z,23
2017-05-14T05:10:44.766Z,24
2017-05-14T05:20:45.787Z,27
2017-05-14T05:30:44.776Z,27
2017-05-14T05:40:46.798Z,28
2017-05-14T05:51:06.398Z,27
2017-05-14T06:00:55.609Z,28
2017-05-14T06:10:55.119Z,28
2017-05-14T06:20:44.749Z,28
2017-05-14T06:30:44.781Z,27
2017-05-14T06:40:44.806Z,22
2017-05-14T06:51:04.944Z,21
2017-05-14T07:00:46.851Z,20
2017-05-14T07:10:50.687Z,21
2017-05-14T07:20:44.765Z,19
2017-05-14T07:30:44.770Z,19
2017-05-14T07:40:46.909Z,18
2017-05-14T07:50:57.036Z,17
2017-05-14T08:00:44.806Z,15
2017-05-14T08:10:44.809Z,13
2017-05-14T08:20:44.798Z,10
2017-05-14T08:30:44.801Z,8
2017-05-14T08:40:44.804Z,7
2017-05-14T08:50:45.969Z,5
2017-05-14T09:00:44.872Z,6
2017-05-14T09:10:51.156Z,7
2017-05-14T09:20:44.854Z,6
2017-05-14T09:30:44.838Z,7
2017-05-14T09:40:59.605Z,4
2017-05-14T09:50:49.850Z,3
2017-05-14T10:01:04.719Z,5
2017-05-14T10:10:46.915Z,4
2017-05-14T10:20:48.680Z,4
2017-05-14T10:31:00.586Z,5
2017-05-14T10:40:44.873Z,4
2017-05-14T10:50:44.836Z,5
2017-05-14T11:00:44.843Z,5
2017-05-14T11:10:56.300Z,4
2017-05-14T11:20:46.982Z,4
2017-05-14T11:30:44.854Z,4
2017-05-14T11:40:44.848Z,4
2017-05-14T11:50:44.909Z,3
2017-05-14T12:00:44.851Z,3
2017-05-14T12:10:44.848Z,3
2017-05-14T12:20:44.914Z,5
2017-05-14T12:31:20.230Z,5
2017-05-14T12:41:10.531Z,4
2017-05-14T12:50:44.917Z,3
2017-05-14T13:00:44.914Z,3
2017-05-14T13:11:24.883Z,4
2017-05-14T13:20:47.363Z,4
2017-05-14T13:30:44.892Z,5
2017-05-14T13:41:03.079Z,4
2017-05-14T13:50:44.872Z,4
2017-05-14T14:01:29.402Z,4
2017-05-14T14:10:44.902Z,4
2017-05-14T14:20:44.877Z,3
2017-05-14T14:30:44.898Z,3
2017-05-14T14:51:18.253Z,5
2017-05-14T15:00:56.202Z,4
2017-05-14T15:10:47.005Z,4
2017-05-14T15:20:44.911Z,4
2017-05-14T15:30:44.897Z,4
2017-05-14T15:40:48.891Z,4
2017-05-14T15:50:55.948Z,4
2017-05-14T16:00:44.876Z,2
2017-05-14T16:10:56.807Z,1
2017-05-14T16:20:44.923Z,2
2017-05-14T16:30:44.945Z,2
2017-05-14T16:40:44.921Z,2
2017-05-14T16:50:45.988Z,2
2017-05-14T17:00:45.975Z,2
2017-05-14T17:10:44.952Z,2
2017-05-14T17:20:55.413Z,2
2017-05-14T17:31:02.724Z,2
2017-05-14T17:41:10.928Z,2
2017-05-14T17:50:44.917Z,2
2017-05-14T18:01:12.367Z,2
2017-05-14T18:10:54.804Z,2
2017-05-14T18:20:52.692Z,2
2017-05-14T18:30:45.054Z,2
2017-05-14T18:40:44.997Z,2
2017-05-14T18:50:45.006Z,2
2017-05-14T19:00:44.990Z,4
2017-05-14T19:10:44.962Z,4
2017-05-14T19:20:58.652Z,4
2017-05-14T19:30:44.997Z,4
2017-05-14T19:40:45.012Z,4
2017-05-14T19:50:44.954Z,4
2017-05-14T20:00:53.229Z,5
2017-05-14T20:10:59.388Z,5
2017-05-14T20:20:49.702Z,5
2017-05-14T20:31:10.319Z,5
2017-05-14T20:41:08.366Z,5
2017-05-14T21:01:16.731Z,5
2017-05-14T21:11:03.515Z,6
2017-05-14T21:20:49.174Z,8
2017-05-14T21:30:44.958Z,7
2017-05-14T21:41:12.971Z,8
2017-05-14T21:51:28.375Z,8
2017-05-14T22:01:25.975Z,8
2017-05-14T22:20:50.034Z,6
2017-05-14T22:31:08.130Z,5
2017-05-14T22:40:44.965Z,6
2017-05-14T22:51:20.856Z,6
2017-05-14T23:00:44.899Z,6
2017-05-14T23:10:44.920Z,6
2017-05-14T23:20:44.888Z,7
2017-05-14T23:30:44.898Z,8
2017-05-14T23:40:44.916Z,8
2017-05-14T23:50:44.876Z,7
